AirNav   Pilot Hours Calculator
 
 910 users online  

0CT1 Bristol-Myers Squibb Company Heliport
Wallingford, Connecticut, USA

GOING TO WALLINGFORD?


FAA INFORMATION EFFECTIVE 08 OCTOBER 2020

Location

FAA Identifier: 0CT1
Lat/Long: 41-29-05.3510N 072-45-22.3500W
41-29.089183N 072-45.372500W
41.4848197,-72.7562083
(estimated)
Elevation: 350 ft. / 107 m (estimated)
Variation: 14W (1985)
From city: 3 miles NE of WALLINGFORD, CT
Time zone: UTC -4 (UTC -5 during Standard Time)
Zip code: 06492

Heliport Operations

Heliport use: Private use. Permission required prior to landing
Activation date: 04/1987
Control tower: no
ARTCC: BOSTON CENTER
FSS: BRIDGEPORT FLIGHT SERVICE STATION
Attendance: CONTINUOUS
Wind indicator: yes
Segmented circle: no
Lights: FOR PERIMETER LGTS CALL BRISTOL-MYERS SQUIBB SECURITY 203-677-5300.

Heliport Communications

WX ASOS at MMK (4 nm NW): 134.925 (203-639-9405)
WX AWOS-3 at SNC (13 nm SE): 118.325 (860-526-1551)
WX AWOS-AV at CT71 (14 nm N): 129.825
WX ASOS at HVN (15 nm SW): PHONE 203-466-6205
WX ASOS at HFD (16 nm N): PHONE 860-527-5837
WX AWOS-3PT at OXC (17 nm W): 132.975 (203-262-1190)

Nearby radio navigation aids

VOR radial/distance  VOR name  Freq  Var
MADr357/10.7MADISON VOR/DME110.4013W
HFDr238/13.3HARTFORD VOR/DME114.9013W
BDRr052/25.6BRIDGEPORT VOR/DME108.8012W
GONr300/33.0GROTON VOR/DME110.8514W
CCCr016/33.4CALVERTON VOR/DME117.2013W
ORWr277/34.3NORWICH VOR/DME110.0014W
CMKr084/39.1CARMEL VOR/DME116.6012W
HTOr343/39.3HAMPTON VORTAC113.6013W

Heliport Services

Runway Information

Helipad H1

Dimensions: 50 x 50 ft. / 15 x 15 m
Surface: asphalt
Runway edge lights: PERI
Operational restrictions: HELIPAD IS CIRCULAR.
Latitude: 41-29.089183N
Longitude: 072-45.372500W
Elevation: 350.0 ft.
Traffic pattern: leftleft
Markings: none

Heliport Ownership and Management from official FAA records

Ownership: Privately-owned
Owner: BRISTOL-MYERS SQUIBB COMPANY
206
PRINCETON, NJ 08543
Phone 203-677-5300
Manager: CARL GRANT
206
PRINCETON, NJ 08543
Phone (203) 677-7637
HOME PHONE 203-635-6582.

Additional Remarks

A52-H1 35' TREES 100' E THRU S OF PAD; 75' TREES 400-600' N-NW; 15' LIGHT POLES ON BRIDGE 100' WNW; THREE LIGHTED 25' POLES 150' NNE; LIGHTED 15' BLDG 100' NE; & LIGHTED 15' WINDSOCK 75' NE.
FOR CD CTC YANKEE APCH AT 860-386-3597

Instrument Procedures

There are no published instrument procedures at 0CT1.

Some nearby airports with instrument procedures:

KMMK - Meriden Markham Municipal Airport (4 nm NW)
KSNC - Chester Airport (13 nm SE)
4B8 - Robertson Field Airport (13 nm N)
KHVN - Tweed-New Haven Airport (15 nm SW)
KHFD - Hartford-Brainard Airport (16 nm N)
KOXC - Waterbury-Oxford Airport (17 nm W)
 
Loc | Ops | Rwys | IFR | FBO | Links
Com | Nav | Svcs | Stats | Notes

Silver City Flying Club
 
Area around 0CT1 (Bristol-Myers Squibb Company Heliport)
 
Road maps at: MapQuest Bing Google
 
Aerial photo
No photo
 
Sectional chart

 
Airport distance calculator
Flying to Bristol-Myers Squibb Company Heliport? Find the distance to fly.

From to 0CT1

Sunrise and sunset
Times for 30-Oct-2020
 Local
(UTC-4)
 Zulu
(UTC)
Morning civil twilight06:5410:54
Sunrise07:2311:23
Sunset17:4721:47
Evening civil twilight18:1622:16

Current date and time
Zulu (UTC)  31-Oct-2020 00:48:56
Local (UTC-4)  30-Oct-2020 20:48:56
 
METAR
KMMK 
4nm NW 
302353Z AUTO 00000KT 10SM CLR 01/M01 A3015 RMK AO2 SLP213 60001 T00061011 10022 20006 51037
KSNC 
13nm SE 
310035Z AUTO 33005KT 10SM BKN038 00/M01 A3015 RMK AO2
KHVN 
14nm S 
302353Z 34003KT 10SM CLR 01/M01 A3015 RMK AO2 SLP210 T00111011 10050 20011 51040
KHFD 
16nm N 
302353Z 02003KT 10SM SCT047 02/M01 A3016 RMK AO2 SLP212 60001 T00171011 10028 20011 51037
KOXC 
16nm W 
302351Z 34008KT 10SM CLR 01/M01 A3013 RMK AO2 SLP225 60000 T00061006 10017 20006 51036
TAF
KBDR 
26nm SW 
301935Z 3020/3118 01012G18KT P6SM BKN020 OVC090 FM302100 36011KT P6SM SCT020 BKN035 FM310100 35007KT P6SM SCT035 FM310600 35004KT P6SM SKC FM311500 03005KT P6SM SKC
KBDL 
27nm N 
310008Z 3100/0106 00000KT 3SM BR FEW002 FM311400 36003KT P6SM SKC FM311800 16004KT P6SM SKC FM010300 18003KT P6SM FEW100
NOTAMs
Click for the latest NOTAMs
NOTAMs are issued by the DoD/FAA and will open in a separate window not controlled by AirNav.

 

 
 

Would you like to see your business listed on this page?

 If your business provides an interesting product or service to pilots, flight crews, aircraft, or users of the Bristol-Myers Squibb Company Heliport, you should consider listing it here.  To start the listing process, click on the button below
 
Add a business
 

Other Pages about Bristol-Myers Squibb Company Heliport

Update a link
 
Copyright © AirNav, LLC. All rights reserved. Privacy Policy  Contact